Time;durP1;ratioP1;P1;durP2;ratioP2;P2;SDS_P1;SDS_P2;PMS_P1;PMS_P2;Temp;Humidity;BMP_temperature;BMP_pressure;BME280_temperature;BME280_humidity;BME280_pressure;Samples;Min_cycle;Max_cycle;Signal;HPM_P1;HPM_P2
2023/09/14 00:00:45;;;;;;;28.30;13.30;;;;;;;13.58;64.20;100295.84;5053075;28;20029;-61
2023/09/14 00:03:12;;;;;;;20.63;11.18;;;;;;;13.51;64.53;100301.88;5051894;28;20033;-63
2023/09/14 00:05:43;;;;;;;27.13;11.88;;;;;;;13.54;64.22;100307.84;5051395;28;20067;-63
2023/09/14 00:08:09;;;;;;;24.75;11.70;;;;;;;13.47;64.49;100303.97;5052953;28;20040;-64
2023/09/14 00:10:35;;;;;;;25.55;11.90;;;;;;;13.45;64.76;100297.88;5053445;28;20064;-59
2023/09/14 00:13:02;;;;;;;27.45;12.88;;;;;;;13.37;65.52;100300.34;5051912;28;20048;-60
2023/09/14 00:15:28;;;;;;;25.35;11.18;;;;;;;13.38;65.06;100299.34;5052531;28;20033;-62
2023/09/14 00:17:54;;;;;;;29.55;11.60;;;;;;;13.31;65.01;100286.44;5053082;28;20329;-64
2023/09/14 00:20:21;;;;;;;30.92;12.55;;;;;;;13.33;65.08;100294.34;5053277;28;20024;-63
2023/09/14 00:22:49;;;;;;;27.52;12.68;;;;;;;13.38;65.14;100302.03;5053320;28;20124;-64
2023/09/14 00:25:15;;;;;;;23.98;12.85;;;;;;;13.37;65.14;100301.16;5053260;28;20104;-63
2023/09/14 00:27:40;;;;;;;26.45;13.02;;;;;;;13.38;64.89;100293.97;5053161;28;20052;-63
2023/09/14 00:30:06;;;;;;;33.67;13.18;;;;;;;13.43;64.77;100299.84;5053297;28;20112;-64
2023/09/14 00:32:32;;;;;;;27.35;12.18;;;;;;;13.43;64.65;100294.47;5053238;28;20037;-65
2023/09/14 00:34:57;;;;;;;26.42;12.10;;;;;;;13.37;64.97;100285.03;5051968;28;20174;-65
2023/09/14 00:37:22;;;;;;;24.27;11.70;;;;;;;13.43;64.69;100298.00;5052983;28;20355;-64
2023/09/14 00:39:48;;;;;;;19.63;11.98;;;;;;;13.44;64.76;100288.09;5053438;28;20050;-63
2023/09/14 00:42:13;;;;;;;21.60;11.13;;;;;;;13.42;64.85;100298.97;5052955;28;20028;-60
2023/09/14 00:44:39;;;;;;;25.05;12.40;;;;;;;13.40;65.00;100292.88;5052025;28;20432;-60
2023/09/14 00:47:04;;;;;;;27.45;12.40;;;;;;;13.41;65.16;100301.78;5052942;28;20041;-60
2023/09/14 00:49:29;;;;;;;24.60;12.52;;;;;;;13.41;65.33;100293.72;5053429;28;20025;-61
2023/09/14 00:51:56;;;;;;;26.27;12.45;;;;;;;13.46;65.33;100294.19;5052227;28;20033;-61
2023/09/14 00:54:21;;;;;;;23.35;11.55;;;;;;;13.46;65.24;100297.75;5052102;28;20119;-62
2023/09/14 00:56:47;;;;;;;29.02;12.88;;;;;;;13.45;65.22;100290.66;5052870;28;20426;-63
2023/09/14 00:59:13;;;;;;;23.55;12.50;;;;;;;13.43;65.35;100289.06;5052653;28;20082;-60
2023/09/14 01:01:38;;;;;;;27.40;12.57;;;;;;;13.43;65.23;100300.69;5052787;28;20037;-62
2023/09/14 01:04:05;;;;;;;24.55;12.70;;;;;;;13.45;65.59;100289.78;5051574;28;20029;-61
2023/09/14 01:06:32;;;;;;;25.73;13.50;;;;;;;13.41;65.58;100293.72;5052569;28;20391;-61
2023/09/14 01:08:57;;;;;;;21.73;12.55;;;;;;;13.38;65.60;100291.28;5052716;28;20104;-61
2023/09/14 01:11:23;;;;;;;28.88;13.02;;;;;;;13.35;66.05;100292.38;5051502;28;20162;-59
2023/09/14 01:14:09;;;;;;;27.00;13.75;;;;;;;13.41;66.17;100294.56;5050670;28;20196;-61
2023/09/14 01:16:46;;;;;;;29.98;14.18;;;;;;;13.35;66.07;100293.25;5052673;28;20072;-61
2023/09/14 01:19:18;;;;;;;25.55;13.30;;;;;;;13.38;66.10;100291.28;5052623;28;20037;-62
2023/09/14 01:22:00;;;;;;;25.15;13.32;;;;;;;13.36;66.41;100302.16;5052547;28;20047;-60
2023/09/14 01:24:43;;;;;;;28.25;13.50;;;;;;;13.35;66.45;100295.06;5051354;28;20329;-61
2023/09/14 01:27:09;;;;;;;20.98;12.88;;;;;;;13.22;66.84;100295.25;5052167;28;20033;-61
2023/09/14 01:29:34;;;;;;;30.10;13.10;;;;;;;13.18;67.13;100300.06;5052128;28;20032;-61
2023/09/14 01:31:59;;;;;;;26.30;13.55;;;;;;;13.12;67.19;100294.34;5051609;28;20053;-62
2023/09/14 01:34:25;;;;;;;31.40;13.98;;;;;;;13.13;67.40;100299.56;5051447;28;20072;-63
2023/09/14 01:36:56;;;;;;;24.60;13.32;;;;;;;13.16;67.35;100306.53;5052321;28;20109;-62
2023/09/14 01:39:25;;;;;;;24.98;13.80;;;;;;;13.10;67.44;100304.38;5052103;28;20044;-64
2023/09/14 01:41:54;;;;;;;28.80;13.82;;;;;;;13.07;67.73;100297.41;5051928;28;20033;-62
2023/09/14 01:44:22;;;;;;;22.90;14.27;;;;;;;13.12;67.48;100305.94;5051247;28;20118;-61
2023/09/14 01:46:48;;;;;;;28.67;14.30;;;;;;;13.16;67.28;100303.84;5051772;28;20083;-61
2023/09/14 01:49:13;;;;;;;34.50;14.60;;;;;;;13.16;67.21;100306.53;5051209;28;20037;-60
2023/09/14 01:51:39;;;;;;;27.92;13.80;;;;;;;13.19;67.25;100311.66;5050615;28;20044;-58
2023/09/14 01:54:05;;;;;;;23.08;13.95;;;;;;;13.19;67.00;100301.78;5050662;28;20039;-63
2023/09/14 01:56:30;;;;;;;24.67;14.68;;;;;;;12.88;67.04;100245.19;5051969;28;20039;-60
2023/09/14 01:58:56;;;;;;;25.38;14.57;;;;;;;13.00;67.15;100278.25;5051006;28;20060;-60
2023/09/14 02:01:21;;;;;;;24.48;14.60;;;;;;;12.94;67.22;100273.38;5050666;28;20452;-61
2023/09/14 02:03:46;;;;;;;29.58;14.27;;;;;;;13.09;67.15;100306.19;5051320;28;20068;-61
2023/09/14 02:06:12;;;;;;;23.88;14.30;;;;;;;13.05;67.61;100294.88;5051307;28;20059;-60
2023/09/14 02:08:37;;;;;;;29.73;15.20;;;;;;;12.99;67.80;100292.66;5050415;28;20099;-60
2023/09/14 02:11:03;;;;;;;26.40;14.13;;;;;;;12.96;68.07;100292.09;5052190;28;20052;-61
2023/09/14 02:13:28;;;;;;;23.38;14.55;;;;;;;12.89;67.89;100294.44;5050415;28;20114;-61
2023/09/14 02:15:54;;;;;;;26.48;15.07;;;;;;;12.77;68.33;100269.44;5051864;28;20041;-61
2023/09/14 02:18:19;;;;;;;29.70;15.48;;;;;;;12.84;68.31;100280.53;5051809;28;20123;-61
2023/09/14 02:20:44;;;;;;;20.20;14.27;;;;;;;12.91;68.34;100289.78;5051284;28;20033;-61
2023/09/14 02:23:10;;;;;;;24.75;15.00;;;;;;;12.85;68.74;100292.97;5050450;28;20025;-60
2023/09/14 02:25:35;;;;;;;26.83;14.75;;;;;;;12.87;68.76;100296.38;5050438;28;20048;-61
2023/09/14 02:28:02;;;;;;;24.25;15.55;;;;;;;12.86;68.73;100294.69;5051356;28;20448;-61
2023/09/14 02:30:28;;;;;;;26.98;15.40;;;;;;;12.83;68.81;100292.25;5051611;28;20045;-61
2023/09/14 02:32:53;;;;;;;29.83;16.02;;;;;;;12.85;68.70;100298.34;5051701;28;20110;-61
2023/09/14 02:35:19;;;;;;;27.60;16.67;;;;;;;12.84;68.81;100305.53;5051452;28;20041;-61
2023/09/14 02:37:44;;;;;;;31.15;17.88;;;;;;;12.83;68.65;100311.06;5051693;28;20435;-61
2023/09/14 02:40:10;;;;;;;27.42;16.40;;;;;;;12.82;68.90;100303.97;5051170;28;20072;-61
2023/09/14 02:42:37;;;;;;;28.58;17.50;;;;;;;12.73;68.78;100295.69;5051159;28;20116;-60
2023/09/14 02:45:06;;;;;;;28.25;17.23;;;;;;;12.76;68.97;100300.81;5051367;28;20045;-62
2023/09/14 02:47:31;;;;;;;26.90;18.42;;;;;;;12.78;68.86;100314.13;5050247;28;20029;-60
2023/09/14 02:49:58;;;;;;;29.08;18.02;;;;;;;12.78;68.72;100298.88;5051043;28;20119;-62
2023/09/14 02:52:24;;;;;;;30.65;17.67;;;;;;;12.59;68.77;100279.88;5050863;28;20120;-60
2023/09/14 02:54:49;;;;;;;27.17;17.45;;;;;;;12.70;68.75;100295.94;5051616;28;20144;-61
2023/09/14 02:57:14;;;;;;;27.27;17.80;;;;;;;12.70;69.15;100301.31;5051031;28;20041;-61
2023/09/14 02:59:40;;;;;;;28.85;17.42;;;;;;;12.69;68.97;100310.34;5050872;28;20489;-61
2023/09/14 03:02:06;;;;;;;30.10;17.80;;;;;;;12.67;68.94;100306.94;5051662;28;20505;-61
2023/09/14 03:04:31;;;;;;;23.55;17.25;;;;;;;12.66;69.23;100305.22;5054523;28;20029;-66
2023/09/14 03:06:57;;;;;;;26.00;16.58;;;;;;;12.69;69.35;100306.84;5055185;28;20037;-64
2023/09/14 03:09:22;;;;;;;30.52;16.98;;;;;;;12.72;69.21;100310.09;5054146;28;20163;-65
2023/09/14 03:11:48;;;;;;;28.88;18.75;;;;;;;12.73;69.12;100317.19;5054831;28;20045;-64
2023/09/14 03:14:13;;;;;;;37.53;18.75;;;;;;;12.75;69.04;100309.84;5054553;28;20087;-64
2023/09/14 03:16:38;;;;;;;29.55;18.13;;;;;;;12.78;69.26;100314.13;5054715;28;20127;-63
2023/09/14 03:19:04;;;;;;;27.08;17.88;;;;;;;12.79;68.98;100310.47;5054366;28;20367;-62
2023/09/14 03:21:29;;;;;;;28.63;17.98;;;;;;;12.84;68.91;100307.41;5054675;28;20121;-62
2023/09/14 03:23:55;;;;;;;29.80;17.73;;;;;;;12.79;68.83;100302.41;5054835;28;20044;-61
2023/09/14 03:26:23;;;;;;;31.58;17.65;;;;;;;12.97;68.73;100317.97;5054677;28;20061;-63
2023/09/14 03:28:49;;;;;;;29.20;17.50;;;;;;;12.95;68.41;100304.66;5054050;28;20029;-61
2023/09/14 03:31:15;;;;;;;36.38;19.73;;;;;;;13.14;68.43;100311.19;5054060;28;20356;-60
2023/09/14 03:33:40;;;;;;;29.27;17.95;;;;;;;13.48;67.28;100305.66;5053966;28;20118;-61
2023/09/14 03:36:06;;;;;;;24.38;16.83;;;;;;;14.16;65.21;100315.97;5053905;28;20116;-61
2023/09/14 03:38:31;;;;;;;30.85;16.90;;;;;;;14.99;62.21;100317.66;5054064;28;20028;-61
2023/09/14 03:40:56;;;;;;;25.83;16.60;;;;;;;15.89;59.41;100306.63;5054150;28;20032;-61
2023/09/14 03:43:22;;;;;;;29.52;16.02;;;;;;;16.78;56.44;100298.09;5053388;28;20037;-61
2023/09/14 03:45:47;;;;;;;28.30;16.38;;;;;;;17.64;53.58;100293.97;5052605;28;20459;-61
2023/09/14 03:48:13;;;;;;;29.30;17.00;;;;;;;18.46;51.39;100309.00;5054287;28;20091;-63
2023/09/14 03:50:38;;;;;;;28.65;15.93;;;;;;;19.09;49.89;100305.94;5053673;28;20354;-63
2023/09/14 03:53:04;;;;;;;31.58;16.23;;;;;;;19.69;47.98;100300.34;5054105;28;20059;-64
2023/09/14 03:55:30;;;;;;;33.75;17.00;;;;;;;20.28;46.44;100302.75;5053741;28;20087;-63
2023/09/14 03:57:57;;;;;;;37.15;16.25;;;;;;;20.68;45.23;100302.72;5053138;28;20410;-65
2023/09/14 04:00:23;;;;;;;32.50;16.10;;;;;;;21.13;44.36;100302.16;5054033;28;20083;-64
2023/09/14 04:02:49;;;;;;;30.10;15.70;;;;;;;21.77;42.63;100298.22;5053477;28;20094;-63
2023/09/14 04:05:16;;;;;;;26.52;15.25;;;;;;;22.41;41.20;100310.41;5052522;28;20041;-63
2023/09/14 04:07:42;;;;;;;28.17;15.93;;;;;;;22.95;40.10;100313.84;5053842;28;20024;-63
2023/09/14 04:10:11;;;;;;;29.60;16.15;;;;;;;23.44;39.05;100312.22;5053495;28;20440;-64
2023/09/14 04:12:40;;;;;;;32.03;16.23;;;;;;;23.97;37.96;100305.44;5053533;28;20059;-61
2023/09/14 04:15:06;;;;;;;25.05;15.85;;;;;;;24.33;37.04;100303.56;5052620;28;20082;-63
2023/09/14 04:17:32;;;;;;;34.38;16.73;;;;;;;24.80;36.07;100295.59;5052898;28;20439;-62
2023/09/14 04:19:58;;;;;;;25.52;15.45;;;;;;;25.40;34.97;100297.56;5052115;28;20446;-61
2023/09/14 04:22:23;;;;;;;34.72;16.33;;;;;;;26.13;33.44;100294.94;5053721;28;20033;-65
2023/09/14 04:24:49;;;;;;;27.58;15.00;;;;;;;26.69;32.32;100307.22;5052567;28;20051;-65
2023/09/14 04:27:15;;;;;;;28.58;15.02;;;;;;;27.27;31.16;100297.19;5052707;28;20033;-61
2023/09/14 04:29:41;;;;;;;26.08;14.02;;;;;;;27.98;30.21;100305.25;5053548;28;20033;-61
2023/09/14 04:32:06;;;;;;;23.30;14.45;;;;;;;28.54;28.97;100287.91;5053554;28;20463;-62
2023/09/14 04:34:32;;;;;;;25.52;14.45;;;;;;;29.03;28.48;100288.72;5052850;28;20032;-62
2023/09/14 04:36:57;;;;;;;23.15;15.00;;;;;;;29.54;27.46;100288.34;5052972;28;20035;-62
2023/09/14 04:39:22;;;;;;;29.13;14.30;;;;;;;30.13;26.42;100303.22;5053320;28;20340;-62
2023/09/14 04:41:49;;;;;;;21.15;13.18;;;;;;;30.65;25.54;100294.94;5053170;28;20032;-62
2023/09/14 04:44:14;;;;;;;21.85;13.48;;;;;;;31.10;25.45;100302.63;5052364;28;20033;-61
2023/09/14 04:46:39;;;;;;;22.20;13.55;;;;;;;31.55;24.76;100309.25;5052721;28;20037;-64
2023/09/14 04:49:05;;;;;;;24.63;13.75;;;;;;;31.70;24.14;100306.69;5053248;28;20057;-61
2023/09/14 04:51:30;;;;;;;28.55;13.73;;;;;;;31.56;24.29;100306.19;5053042;28;20113;-61
2023/09/14 04:53:56;;;;;;;27.70;13.90;;;;;;;31.89;24.14;100303.69;5051967;28;20048;-62
2023/09/14 04:56:21;;;;;;;20.60;13.52;;;;;;;32.35;23.08;100311.81;5052804;28;20079;-61
2023/09/14 04:58:47;;;;;;;22.02;14.45;;;;;;;32.20;23.38;100293.03;5053047;28;20036;-60
2023/09/14 05:01:12;;;;;;;25.90;13.52;;;;;;;32.34;23.39;100299.88;5052900;28;20052;-62
2023/09/14 05:03:39;;;;;;;22.50;13.40;;;;;;;32.81;22.43;100307.91;5052006;28;20076;-61
2023/09/14 05:06:04;;;;;;;24.50;13.32;;;;;;;33.48;21.52;100300.22;5051947;28;20086;-64
2023/09/14 05:08:30;;;;;;;24.98;13.55;;;;;;;33.76;21.10;100274.06;5052739;28;20029;-63
2023/09/14 05:10:56;;;;;;;23.63;13.68;;;;;;;34.63;20.09;100291.44;5051597;28;20118;-62
2023/09/14 05:13:22;;;;;;;22.50;13.13;;;;;;;35.28;19.40;100296.56;5051244;28;20103;-63
2023/09/14 05:15:48;;;;;;;24.17;13.40;;;;;;;35.82;18.99;100311.00;5050445;28;20037;-63
2023/09/14 05:18:13;;;;;;;18.80;12.35;;;;;;;36.35;18.44;100304.16;5052731;28;20086;-63
2023/09/14 05:20:47;;;;;;;16.23;11.15;;;;;;;37.05;17.83;100297.66;5052657;28;20036;-64
2023/09/14 05:23:12;;;;;;;16.13;11.65;;;;;;;37.50;17.42;100288.38;5052204;28;20037;-63
2023/09/14 05:25:39;;;;;;;18.02;11.32;;;;;;;38.22;16.22;100306.31;5051270;28;20044;-62
2023/09/14 05:28:05;;;;;;;18.23;11.10;;;;;;;38.48;16.06;100303.25;5052742;28;20056;-62
2023/09/14 05:30:32;;;;;;;19.80;11.50;;;;;;;38.61;15.89;100288.47;5052285;28;20036;-61
2023/09/14 05:32:58;;;;;;;18.85;10.85;;;;;;;39.09;15.78;100294.25;5050601;28;20154;-62
2023/09/14 05:35:24;;;;;;;18.02;10.32;;;;;;;39.48;15.21;100267.81;5051536;28;20033;-61
2023/09/14 05:37:50;;;;;;;17.70;11.23;;;;;;;39.89;14.80;100294.22;5052257;28;20044;-62
2023/09/14 05:40:16;;;;;;;17.30;11.40;;;;;;;40.28;14.21;100294.91;5051270;28;20041;-63
2023/09/14 05:42:41;;;;;;;16.73;11.00;;;;;;;40.31;14.42;100281.06;5051909;28;20098;-62
2023/09/14 05:45:09;;;;;;;18.05;10.57;;;;;;;40.41;14.11;100231.50;5051349;28;20040;-61
2023/09/14 05:47:35;;;;;;;16.45;10.50;;;;;;;41.35;13.65;100281.44;5052090;28;20025;-62
2023/09/14 05:50:01;;;;;;;13.02;10.10;;;;;;;41.97;13.14;100291.00;5051584;28;20511;-63
2023/09/14 05:52:26;;;;;;;14.75;9.85;;;;;;;42.20;12.70;100287.28;5050652;28;20136;-63
2023/09/14 05:54:52;;;;;;;14.80;9.07;;;;;;;42.24;12.79;100291.13;5051404;28;20025;-64
2023/09/14 05:57:17;;;;;;;15.68;9.45;;;;;;;42.25;12.69;100282.34;5051377;28;20441;-62
2023/09/14 05:59:43;;;;;;;19.52;9.80;;;;;;;42.58;12.54;100287.56;5051463;28;20120;-64
2023/09/14 06:02:08;;;;;;;13.27;9.45;;;;;;;43.05;12.28;100288.06;5051989;28;20115;-62
2023/09/14 06:04:34;;;;;;;15.80;9.13;;;;;;;43.54;11.62;100285.81;5051213;28;20474;-62
2023/09/14 06:07:00;;;;;;;17.35;9.32;;;;;;;43.81;11.58;100254.72;5051587;28;20037;-62
2023/09/14 06:09:26;;;;;;;16.67;8.93;;;;;;;43.71;11.53;100276.47;5052186;28;20029;-61
2023/09/14 06:11:54;;;;;;;14.90;9.55;;;;;;;43.68;11.87;100282.75;5051169;28;20049;-63
2023/09/14 06:14:19;;;;;;;18.90;10.07;;;;;;;43.60;11.53;100276.00;5050739;28;20451;-62
2023/09/14 06:16:45;;;;;;;16.35;9.23;;;;;;;44.08;11.11;100280.78;5050908;28;20115;-62
2023/09/14 06:19:10;;;;;;;16.48;9.85;;;;;;;44.44;10.70;100285.03;5051359;28;20866;-63
2023/09/14 06:21:36;;;;;;;17.02;9.00;;;;;;;45.05;10.40;100280.06;5051690;28;20048;-62
2023/09/14 06:24:01;;;;;;;26.20;9.48;;;;;;;45.40;10.16;100274.09;5051300;28;20037;-65
2023/09/14 06:26:28;;;;;;;14.20;9.40;;;;;;;45.78;9.95;100281.44;5051420;28;20033;-62
2023/09/14 06:28:54;;;;;;;17.38;7.93;;;;;;;45.63;9.79;100279.31;5051504;28;20025;-62
2023/09/14 06:31:19;;;;;;;13.63;7.20;;;;;;;45.62;9.64;100280.47;5051203;28;20482;-61
2023/09/14 06:33:45;;;;;;;14.95;8.02;;;;;;;45.90;9.42;100263.63;5051304;28;20627;-63
2023/09/14 06:36:10;;;;;;;11.77;8.35;;;;;;;46.17;9.51;100255.63;5051264;28;20037;-66
2023/09/14 06:38:36;;;;;;;19.67;9.27;;;;;;;46.34;9.39;100260.19;5053945;28;20040;-66
2023/09/14 06:41:01;;;;;;;12.80;8.82;;;;;;;46.53;9.33;100267.22;5053696;28;20071;-63
2023/09/14 06:43:27;;;;;;;13.95;9.52;;;;;;;46.82;9.32;100239.75;5055243;28;20033;-66
2023/09/14 06:45:52;;;;;;;14.05;9.35;;;;;;;47.12;9.19;100251.53;5054818;28;20037;-64
2023/09/14 06:48:17;;;;;;;18.50;9.07;;;;;;;47.66;8.53;100255.00;5054397;28;20103;-64
2023/09/14 06:50:43;;;;;;;13.23;8.18;;;;;;;47.92;8.55;100249.91;5054551;28;20094;-63
2023/09/14 06:53:09;;;;;;;19.38;9.13;;;;;;;47.75;8.56;100257.66;5055087;28;20079;-64
2023/09/14 06:55:38;;;;;;;12.57;7.95;;;;;;;47.85;8.29;100265.56;5053956;28;20037;-62
2023/09/14 06:58:04;;;;;;;11.43;8.30;;;;;;;47.81;8.45;100253.31;5054870;28;20036;-64
2023/09/14 07:00:32;;;;;;;12.52;7.72;;;;;;;47.97;8.34;100266.63;5054755;28;20047;-62
2023/09/14 07:02:58;;;;;;;13.85;8.18;;;;;;;47.79;8.45;100247.19;5054055;28;20527;-62
2023/09/14 07:05:24;;;;;;;10.13;8.05;;;;;;;48.00;8.39;100261.06;5054427;28;20107;-62
2023/09/14 07:07:49;;;;;;;13.23;8.15;;;;;;;48.02;7.97;100255.03;5054430;28;20341;-63
2023/09/14 07:10:15;;;;;;;10.38;7.80;;;;;;;48.21;8.32;100233.56;5054164;28;20060;-66
2023/09/14 07:12:40;;;;;;;14.18;8.98;;;;;;;48.68;7.96;100249.59;5054601;28;20056;-63
2023/09/14 07:15:07;;;;;;;11.13;7.78;;;;;;;48.79;7.66;100255.50;5050835;28;21239;-66
2023/09/14 07:17:32;;;;;;;12.55;7.35;;;;;;;48.67;7.76;100233.72;5044761;28;20582;-62
2023/09/14 07:19:58;;;;;;;13.82;7.47;;;;;;;48.78;7.45;100244.53;5051843;28;20107;-62
2023/09/14 07:22:23;;;;;;;12.30;7.07;;;;;;;48.97;7.42;100250.19;5052237;28;20029;-63
2023/09/14 07:24:49;;;;;;;9.65;6.95;;;;;;;48.80;7.64;100244.97;5051846;28;20091;-65
2023/09/14 07:27:15;;;;;;;8.07;6.10;;;;;;;48.23;7.43;100248.19;5053326;28;20087;-62
2023/09/14 07:29:41;;;;;;;7.38;6.05;;;;;;;47.88;7.54;100244.16;5053511;28;20178;-64
2023/09/14 07:32:06;;;;;;;10.57;6.20;;;;;;;47.27;7.71;100249.94;5054153;28;20408;-58
2023/09/14 07:34:32;;;;;;;8.60;6.88;;;;;;;46.98;8.30;100245.47;5051908;28;20036;-60
2023/09/14 07:36:57;;;;;;;9.65;6.28;;;;;;;46.43;8.30;100238.22;5052933;28;20166;-62
2023/09/14 07:39:23;;;;;;;8.95;7.22;;;;;;;46.18;8.94;100234.63;5053174;28;20037;-63
2023/09/14 07:41:48;;;;;;;17.73;7.65;;;;;;;46.21;9.04;100236.75;5053261;28;20345;-61
2023/09/14 07:44:14;;;;;;;13.88;6.97;;;;;;;45.99;8.81;100232.41;5052340;28;20033;-61
2023/09/14 07:46:39;;;;;;;8.93;6.95;;;;;;;45.54;9.18;100232.16;5052405;28;20028;-59
2023/09/14 07:49:06;;;;;;;8.10;6.38;;;;;;;44.83;9.25;100245.38;5052252;28;20025;-60
2023/09/14 07:51:31;;;;;;;8.30;6.60;;;;;;;43.59;10.15;100222.78;5053038;28;20421;-63
2023/09/14 07:53:57;;;;;;;9.50;6.15;;;;;;;42.58;10.93;100230.41;5053112;28;20426;-61
2023/09/14 07:56:23;;;;;;;9.95;6.70;;;;;;;40.63;12.35;100222.25;5052710;28;20119;-65
2023/09/14 07:58:48;;;;;;;8.98;6.13;;;;;;;38.10;13.95;100228.47;5052279;28;20033;-60
2023/09/14 08:01:14;;;;;;;10.80;5.97;;;;;;;35.55;15.90;100211.06;5051575;28;20033;-62
2023/09/14 08:03:39;;;;;;;12.68;6.10;;;;;;;33.50;18.71;100221.16;5053693;28;20063;-66
2023/09/14 08:06:05;;;;;;;13.52;6.55;;;;;;;31.74;20.57;100229.53;5051642;28;20033;-62
2023/09/14 08:08:32;;;;;;;12.02;6.40;;;;;;;30.00;22.34;100214.00;5044414;28;20118;-63
2023/09/14 08:10:58;;;;;;;13.10;6.68;;;;;;;28.59;24.43;100210.91;5051664;28;20036;-61
2023/09/14 08:13:23;;;;;;;8.70;5.85;;;;;;;27.51;25.61;100215.78;5052638;28;20057;-61
2023/09/14 08:15:49;;;;;;;16.63;7.25;;;;;;;26.57;26.99;100232.09;5050893;28;20497;-61
2023/09/14 08:18:14;;;;;;;12.55;6.55;;;;;;;25.79;28.16;100205.38;5051944;28;20047;-61
2023/09/14 08:20:44;;;;;;;16.17;8.20;;;;;;;25.37;28.98;100222.09;5053282;28;20036;-63
2023/09/14 08:23:12;;;;;;;12.07;8.07;;;;;;;25.01;29.78;100225.25;5052431;28;20119;-63
2023/09/14 08:25:43;;;;;;;7.57;5.72;;;;;;;24.82;29.73;100224.16;5051501;28;20116;-64
2023/09/14 08:28:10;;;;;;;12.90;7.50;;;;;;;24.46;30.61;100221.53;5053198;28;20151;-60
2023/09/14 08:30:37;;;;;;;16.75;7.63;;;;;;;24.17;31.66;100220.81;5052437;28;20104;-60
2023/09/14 08:33:03;;;;;;;14.30;7.60;;;;;;;23.75;31.82;100182.53;5052136;28;20383;-67
2023/09/14 08:35:31;;;;;;;11.10;8.90;;;;;;;23.88;32.69;100211.81;5051544;28;20416;-62
2023/09/14 08:37:57;;;;;;;9.00;8.10;;;;;;;23.80;32.39;100217.44;5052744;28;20032;-64
2023/09/14 08:40:24;;;;;;;13.30;7.38;;;;;;;23.91;32.26;100203.22;5053011;28;20087;-61
2023/09/14 08:42:52;;;;;;;13.02;7.72;;;;;;;23.97;31.91;100178.84;5052423;28;20455;-65
2023/09/14 08:45:23;;;;;;;15.75;8.23;;;;;;;24.33;31.20;100202.34;5051435;28;20029;-65
2023/09/14 08:47:50;;;;;;;17.40;7.80;;;;;;;24.28;31.56;100199.38;5050986;28;20028;-61
2023/09/14 08:50:24;;;;;;;12.57;7.63;;;;;;;24.26;31.40;100210.53;5052223;28;20036;-62
2023/09/14 08:52:50;;;;;;;13.70;8.23;;;;;;;24.14;31.84;100195.75;5050758;28;20539;-63
2023/09/14 08:55:20;;;;;;;11.90;7.72;;;;;;;24.45;31.30;100197.97;5051076;28;20142;-62
2023/09/14 08:57:47;;;;;;;14.35;6.97;;;;;;;24.68;30.31;100191.28;5049000;28;20028;-64
2023/09/14 09:00:20;;;;;;;10.05;6.18;;;;;;;24.89;29.85;100197.66;5052053;28;20037;-61
2023/09/14 09:02:52;;;;;;;9.55;5.90;;;;;;;25.20;29.70;100194.28;5051152;28;20098;-62
2023/09/14 09:05:20;;;;;;;11.95;6.05;;;;;;;25.24;29.60;100183.72;5051730;28;20056;-60
2023/09/14 09:07:48;;;;;;;8.38;6.07;;;;;;;25.32;29.62;100201.84;5049965;28;20396;-62
2023/09/14 09:10:24;;;;;;;11.05;6.10;;;;;;;25.47;29.18;100182.47;5050512;28;20040;-62
2023/09/14 09:12:51;;;;;;;14.57;6.93;;;;;;;25.49;29.60;100191.31;5051385;28;20052;-67
2023/09/14 09:15:17;;;;;;;14.45;6.60;;;;;;;25.47;29.54;100188.81;5050680;28;20036;-67
2023/09/14 09:17:44;;;;;;;8.68;5.68;;;;;;;25.39;29.19;100178.00;5052081;28;20064;-67
2023/09/14 09:20:22;;;;;;;8.80;5.63;;;;;;;25.20;29.42;100153.19;5051719;28;20036;-66
2023/09/14 09:22:50;;;;;;;9.73;6.30;;;;;;;25.14;29.91;100181.41;5051902;28;20140;-68
2023/09/14 09:25:17;;;;;;;8.82;5.28;;;;;;;24.93;30.40;100186.03;5051456;28;20025;-71
2023/09/14 09:27:44;;;;;;;14.10;5.68;;;;;;;24.56;30.79;100171.88;5051934;28;20456;-66
2023/09/14 09:30:10;;;;;;;10.57;5.70;;;;;;;24.42;31.30;100178.38;5050919;28;20025;-67
2023/09/14 09:32:37;;;;;;;9.73;5.80;;;;;;;24.15;31.57;100137.25;5051440;28;20024;-67
2023/09/14 09:35:16;;;;;;;9.88;5.20;;;;;;;24.42;30.94;100132.72;5050873;28;20352;-66
2023/09/14 09:37:42;;;;;;;8.52;6.13;;;;;;;24.41;31.55;100138.38;5052386;28;20432;-66
2023/09/14 09:40:18;;;;;;;5.88;4.82;;;;;;;24.60;30.76;100161.38;5050708;28;20025;-69
2023/09/14 09:42:46;;;;;;;8.10;5.28;;;;;;;24.56;30.48;100162.81;5051148;28;20118;-67
2023/09/14 09:45:13;;;;;;;10.35;4.65;;;;;;;24.53;30.78;100139.47;5051395;28;20033;-72
2023/09/14 09:47:39;;;;;;;6.55;4.70;;;;;;;24.74;29.97;100157.59;5051161;28;20037;-69
2023/09/14 09:50:09;;;;;;;7.43;4.57;;;;;;;24.64;30.03;100166.19;5050804;28;20070;-68
2023/09/14 09:52:35;;;;;;;4.40;4.00;;;;;;;24.55;30.30;100148.31;5050317;28;20439;-67
2023/09/14 09:55:02;;;;;;;6.75;4.07;;;;;;;24.45;30.33;100126.81;5050922;28;20033;-66
2023/09/14 09:57:31;;;;;;;8.13;5.30;;;;;;;24.61;30.33;100150.19;5051456;28;20091;-66
2023/09/14 09:59:57;;;;;;;7.95;4.43;;;;;;;24.69;30.62;100143.69;5049886;28;20036;-68
2023/09/14 10:02:31;;;;;;;7.30;4.90;;;;;;;24.80;30.50;100142.25;5050891;28;20068;-70
2023/09/14 10:04:58;;;;;;;7.70;5.40;;;;;;;24.62;30.89;100159.28;5051031;28;20059;-67
2023/09/14 10:07:24;;;;;;;10.63;5.68;;;;;;;24.16;31.73;100148.00;5051281;28;20455;-69
2023/09/14 10:09:55;;;;;;;6.70;4.70;;;;;;;23.56;32.10;100123.13;5048558;28;20041;-67
2023/09/14 10:12:26;;;;;;;9.18;4.45;;;;;;;23.52;32.00;100155.47;5049057;28;20055;-65
2023/09/14 10:14:55;;;;;;;6.57;4.28;;;;;;;23.45;31.88;100163.63;5054530;28;20037;-68
2023/09/14 10:17:28;;;;;;;7.03;4.35;;;;;;;23.47;32.14;100157.97;5055455;28;20095;-66
2023/09/14 10:19:55;;;;;;;7.07;4.65;;;;;;;23.37;32.63;100139.19;5054170;28;20116;-66
2023/09/14 10:22:23;;;;;;;8.68;4.40;;;;;;;23.29;32.67;100150.31;5052390;28;20108;-63
2023/09/14 10:24:50;;;;;;;7.00;4.70;;;;;;;23.17;33.27;100139.06;5052337;28;20452;-62
2023/09/14 10:27:16;;;;;;;6.20;4.68;;;;;;;23.13;33.52;100133.13;5053624;28;20053;-58
2023/09/14 10:29:44;;;;;;;8.35;4.88;;;;;;;23.17;33.58;100128.13;5051411;28;20147;-69
2023/09/14 10:32:15;;;;;;;6.93;5.03;;;;;;;23.13;32.90;100102.22;5033130;28;20043;-64
2023/09/14 10:34:41;;;;;;;7.03;4.57;;;;;;;23.15;33.33;100130.19;5033124;28;20108;-63
2023/09/14 10:37:11;;;;;;;5.15;4.65;;;;;;;23.00;32.96;100136.59;5034308;28;20026;-62
2023/09/14 10:39:37;;;;;;;6.63;4.40;;;;;;;22.90;33.06;100130.63;5046973;28;20044;-64
2023/09/14 10:42:05;;;;;;;7.88;4.65;;;;;;;23.05;33.06;100139.56;5054063;28;20067;-62
2023/09/14 10:44:32;;;;;;;7.40;4.65;;;;;;;23.09;33.09;100112.72;5055052;28;20037;-62
2023/09/14 10:47:01;;;;;;;7.65;4.55;;;;;;;23.31;32.87;100131.81;5054250;28;20032;-62
2023/09/14 10:49:33;;;;;;;37.85;6.90;;;;;;;23.50;32.63;100120.13;5054019;28;20021;-64
2023/09/14 10:51:59;;;;;;;9.73;5.20;;;;;;;23.58;32.35;100115.56;5053380;28;20029;-63
2023/09/14 10:54:25;;;;;;;7.20;4.60;;;;;;;23.52;32.41;100122.69;5054572;28;20033;-62
2023/09/14 10:57:14;;;;;;;6.43;4.10;;;;;;;23.49;32.09;100095.75;5055112;28;20508;-62
2023/09/14 10:59:49;;;;;;;15.13;4.57;;;;;;;23.69;32.18;100117.72;5052328;28;20028;-62
2023/09/14 11:02:36;;;;;;;8.13;4.40;;;;;;;23.75;31.90;100121.53;5053642;28;20056;-62
2023/09/14 11:05:18;;;;;;;7.95;4.43;;;;;;;23.60;31.91;100118.94;5054006;28;20455;-63
2023/09/14 11:07:47;;;;;;;7.43;4.28;;;;;;;23.20;32.87;100125.00;5053495;28;20029;-62
2023/09/14 11:10:18;;;;;;;10.27;3.92;;;;;;;22.82;32.71;100081.66;5053633;28;20024;-63
2023/09/14 11:12:45;;;;;;;5.22;3.70;;;;;;;22.70;33.14;100130.47;5054408;28;20120;-62
2023/09/14 11:15:15;;;;;;;7.82;4.15;;;;;;;22.53;33.24;100119.00;5053791;28;20052;-65